Home > Products > Valid Products > MTR

000
SAUS45 KRIW 270057
MTRP60
METAR KP60 270056Z AUTO VRB06KT 01/M02 A3028 RMK AO1 SLP251
T00061017





000
SAUS45 KRIW 262357
MTRP60
METAR KP60 262356Z AUTO 27007G18KT 01/M02 A3027 RMK AO1 SLP248 60001
T00061017 10017 20000 53008





000
SAUS45 KRIW 262257
MTRP60
METAR KP60 262256Z AUTO VRB06KT 00/M02 A3026 RMK AO1 SLP246
T00001022





000
SAUS45 KRIW 262157
MTRP60
METAR KP60 262156Z AUTO VRB03G15KT 00/M02 A3025 RMK AO1 SLP244
T00001022





000
SAUS45 KRIW 262157
MTRP60
METAR KP60 262156Z AUTO VRB03G15KT 00/M02 A3025 RMK AO1 SLP244
T00001022





000
SAUS45 KRIW 262057
MTRP60
METAR KP60 262056Z AUTO 26007KT 210V290 01/M02 A3024 RMK AO1 SLP238
60001 T00061017 53008





000
SAUS45 KRIW 261957
MTRP60
METAR KP60 261956Z AUTO VRB05G16KT 01/M02 A3022 RMK AO1 SLP235 P0001
T00111017





000
SAUS45 KRIW 261857
MTRP60
METAR KP60 261856Z AUTO VRB04KT 00/M02 A3022 RMK AO1 SLP236
T00001022





000
SAUS45 KRIW 261757
MTRP60
METAR KP60 261756Z AUTO 27005KT 01/M02 A3021 RMK AO1 SLP230 60001
T00111022 10011 21006 53016





000
SAUS45 KRIW 261657
MTRP60
METAR KP60 261656Z AUTO 26008G17KT 200V290 01/M02 A3019 RMK AO1
SLP222 T00061022





000
SAUS45 KRIW 261557
MTRP60
METAR KP60 261556Z AUTO 27006KT 00/M02 A3017 RMK AO1 SLP219
T00001022





000
SAUS45 KRIW 261457
MTRP60
METAR KP60 261456Z AUTO VRB04KT 00/M02 A3015 RMK AO1 SLP212 60001
T00001017 53013





000
SAUS45 KRIW 261357
MTRP60
METAR KP60 261356Z AUTO 00/M02 A3013 RMK AO1 SLP205 P0001 T00001022
$





000
SAUS45 KRIW 261257
MTRP60
METAR KP60 261256Z AUTO VRB05KT 00/M02 A3012 RMK AO1 SLP200
T00001022 $





000
SAUS45 KRIW 261157
MTRP60
METAR KP60 261156Z AUTO VRB06KT 00/M02 A3010 RMK AO1 SLP199 P0001
60006 70041 T00001017 10006 21017 52007 $





000
SAUS45 KRIW 261057
MTRP60
METAR KP60 261056Z AUTO VRB05G17KT 00/M02 A3008 RMK AO1 SLP193 P0001
T00001017 $





000
SAUS45 KRIW 260957
MTRP60
METAR KP60 260956Z AUTO VRB04KT 00/M02 A3009 RMK AO1 SLP195
T00001017 $





000
SAUS45 KRIW 260957
MTRP60
METAR KP60 260956Z AUTO VRB04KT 00/M02 A3009 RMK AO1 SLP195
T00001017 $





000
SAUS45 KRIW 260857
MTRP60
METAR KP60 260856Z AUTO VRB05KT 00/M02 A3007 RMK AO1 SLP189 P0001
60004 T00001017 55001 $





000
SAUS45 KRIW 260757
MTRP60
METAR KP60 260756Z AUTO 00000KT M02/M02 A3007 RMK AO1 SLP195 P0002
T10171022 $





000
SAUS45 KRIW 260658
MTRP60
METAR KP60 260656Z AUTO 00000KT M01/M02 A3008 RMK AO1 SLP194 P0001
T10111022 410111072 $





000
SAUS45 KRIW 260557
MTRP60
METAR KP60 260556Z AUTO 00000KT M01/M03 A3008 RMK AO1 SLP198 60005
T10111033 11011 21022 53006 $





000
SAUS45 KRIW 260458
MTRP60
METAR KP60 260456Z AUTO 00000KT M01/M03 A3007 RMK AO1 SLP200
T10111033 $





000
SAUS45 KRIW 260357
MTRP60
METAR KP60 260356Z AUTO VRB06KT M01/M03 A3006 RMK AO1 SLP196
T10111033 $





000
SAUS45 KRIW 260357
MTRP60
METAR KP60 260356Z AUTO VRB06KT M01/M03 A3006 RMK AO1 SLP196
T10111033 $





000
SAUS45 KRIW 260257
MTRP60
METAR KP60 260256Z AUTO VRB04KT M01/M03 A3006 RMK AO1 SLP197 P0002
60005 T10111028 53007 $





000
SAUS45 KRIW 260158
MTRP60
METAR KP60 260156Z AUTO VRB04KT M01/M03 A3005 RMK AO1 SLP192 P0002
T10111028 $





000
SAUS45 KRIW 260057
MTRP60
METAR KP60 260056Z AUTO VRB06KT M01/M03 A3003 RMK AO1 SLP187 P0001
T10111033 $





000
SAUS45 KRIW 252357
MTRP60
METAR KP60 252356Z AUTO 00000KT M02/M03 A3003 RMK AO1 SLP196 P0002
60012 T10221033 11017 21039 51009 $





000
SAUS45 KRIW 252257
MTRP60
METAR KP60 252256Z AUTO 00000KT M02/M03 A3003 RMK AO1 SLP194 P0001
T10221033 $





000
SAUS45 KRIW 252158
MTRP60
METAR KP60 252156Z AUTO VRB03KT M02/M04 A3001 RMK AO1 SLP189 P0002
T10221039 $





000
SAUS45 KRIW 252158
MTRP60
METAR KP60 252156Z AUTO VRB03KT M02/M04 A3001 RMK AO1 SLP189 P0002
T10221039 $





000
SAUS45 KRIW 252057
MTRP60
METAR KP60 252056Z AUTO VRB03KT M02/M04 A3000 RMK AO1 SLP184 P0001
60007 T10221039 55002 $





000
SAUS45 KRIW 251957
MTRP60
METAR KP60 251956Z AUTO VRB05KT M03/M04 A3000 RMK AO1 SLP183 P0003
T10281044 $





000
SAUS45 KRIW 251857
MTRP60
METAR KP60 251856Z AUTO VRB04KT M03/M04 A2999 RMK AO1 SLP180 P0003
T10281044 $





000
SAUS45 KRIW 251757
MTRP60
METAR KP60 251756Z AUTO 26007KT 180V310 M04/M06 A3001 RMK AO1 SLP190
P0003 60018 T10391061 11039 21067 53001 $





000
SAUS45 KRIW 251657
MTRP60
METAR KP60 251656Z AUTO 26009G18KT 200V290 M05/M07 A3000 RMK AO1
SLP191 P0004 T10501067 $





000
SAUS45 KRIW 251657
MTRP60
METAR KP60 251656Z AUTO 26009G18KT 200V290 M05/M07 A3000 RMK AO1
SLP191 P0004 T10501067 $





000
SAUS45 KRIW 251558
MTRP60
METAR KP60 251556Z AUTO 27009G14KT M06/M07 A3000 RMK AO1 SLP195
P0004 T10561072 $





000
SAUS45 KRIW 251458
MTRP60
METAR KP60 251456Z AUTO 28006KT M06/M08 A3000 RMK AO1 SLP200 P0005
60007 T10611078 55007 $





000
SAUS45 KRIW 251357
MTRP60
METAR KP60 251356Z AUTO VRB06KT M06/M08 A3000 RMK AO1 SLP203 P0002
T10611083 $





000
SAUS45 KRIW 251257
MTRP60
METAR KP60 251256Z AUTO VRB04KT M06/M09 A3000 RMK AO1 SLP200
T10611089 $





000
SAUS45 KRIW 251157
MTRP60
METAR KP60 251156Z AUTO VRB05KT M07/M08 A3003 RMK AO1 SLP210 P0002
60010 70012 T10671083 11061 21072 58019 $





000
SAUS45 KRIW 251057
MTRP60
METAR KP60 251056Z AUTO VRB03KT M07/M09 A3006 RMK AO1 SLP217 P0003
T10671089 $





000
SAUS45 KRIW 251057
MTRP60
METAR KP60 251056Z AUTO VRB03KT M07/M09 A3006 RMK AO1 SLP217 P0003
T10671089 $





000
SAUS45 KRIW 250957
MTRP60
METAR KP60 250956Z AUTO VRB04KT M07/M09 A3009 RMK AO1 SLP228 P0003
T10721094 $





000
SAUS45 KRIW 250857
MTRP60
METAR KP60 250856Z AUTO VRB05G14KT M07/M09 A3010 RMK AO1 SLP232
P0002 60002 T10721094 58020 $





000
SAUS45 KRIW 250757
MTRP60
METAR KP60 250756Z AUTO VRB06KT M07/M10 A3014 RMK AO1 SLP240
T10671100 $





000
SAUS45 KRIW 250657
MTRP60
METAR KP60 250656Z AUTO VRB03KT M07/M09 A3016 RMK AO1 SLP251
T10671094 410441094 $





000
SAUS45 KRIW 250557
MTRP60
METAR KP60 250556Z AUTO VRB05KT M07/M09 A3018 RMK AO1 SLP258 60001
T10671094 11067 21083 58011 $





000
SAUS45 KRIW 250457
MTRP60
METAR KP60 250456Z AUTO VRB05KT M07/M10 A3019 RMK AO1 SLP266 P0001
T10671100 $





000
SAUS45 KRIW 250357
MTRP60
METAR KP60 250356Z AUTO VRB05KT M07/M09 A3021 RMK AO1 SLP279
T10721094 $





000
SAUS45 KRIW 250357
MTRP60
METAR KP60 250356Z AUTO VRB05KT M07/M09 A3021 RMK AO1 SLP279
T10721094 $





000
SAUS45 KRIW 250257
MTRP60
METAR KP60 250256Z AUTO 00000KT M07/M12 A3022 RMK AO1 SLP284
T10721117 50001 $





000
SAUS45 KRIW 250158
MTRP60
METAR KP60 250156Z AUTO VRB03KT M08/M12 A3024 RMK AO1 SLP297
T10831122 $





000
SAUS45 KRIW 250057
MTRP60
METAR KP60 250056Z AUTO 27005KT M07/M12 A3021 RMK AO1 SLP282
T10721122 $





000
SAUS45 KRIW 242357
MTRP60
METAR KP60 242356Z AUTO VRB03KT M07/M14 A3021 RMK AO1 SLP282
T10721139 11044 21072 53007 $





000
SAUS45 KRIW 242257
MTRP60
METAR KP60 242256Z AUTO 28006KT M06/M14 A3019 RMK AO1 SLP272
T10611139 $





000
SAUS45 KRIW 242157
MTRP60
METAR KP60 242156Z AUTO 26007KT 230V300 M05/M13 A3019 RMK AO1 SLP262
T10501133 $





000
SAUS45 KRIW 242058
MTRLND
METAR KLND 242053Z AUTO 33018G25KT 10SM CLR 03/M14 A3011 RMK AO2 PK
WND 34029/2000 SLPNO T00281144 53005





000
SAUS45 KRIW 242057
MTRP60
METAR KP60 242056Z AUTO 30007G15KT M05/M13 A3019 RMK AO1 SLP262
T10501128 51014 $





000
SAUS45 KRIW 241958
MTRLND
METAR KLND 241953Z AUTO 34019KT 10SM CLR 03/M14 A3011 RMK AO2 PK WND
31030/1914 SLPNO T00281144





000
SAUS45 KRIW 241958
MTRP60
METAR KP60 241956Z AUTO 29011G21KT 260V320 M05/M13 A3017 RMK AO1
SLP255 T10501128 $





000
SAUS45 KRIW 241858
MTRLND
METAR KLND 241853Z AUTO 33020G27KT 10SM CLR A3009 RMK AO2 PK WND
33027/1853 SLPNO TSNO $





000
SAUS45 KRIW 241857
MTRP60
METAR KP60 241856Z AUTO 28010G16KT M06/M12 A3016 RMK AO1 SLP253
T10561117 $





000
SAUS45 KRIW 241758
MTRLND
METAR KLND 241753Z AUTO 14006KT 10SM OVC090 A3009 RMK AO2 SLPNO
51037 TSNO $





000
SAUS45 KRIW 241757
MTRP60
METAR KP60 241756Z AUTO 28012G17KT 250V320 M06/M11 A3014 RMK AO1
SLP244 60001 T10561106 11050 21094 51020 $





000
SAUS45 KRIW 241657
MTRP60
METAR KP60 241656Z AUTO 29011G20KT M07/M11 A3012 RMK AO1 SLP241
T10671111 $





000
SAUS45 KRIW 241557
MTRP60
METAR KP60 241556Z AUTO 28006KT M07/M11 A3009 RMK AO1 SLP230
T10721111 $





000
SAUS45 KRIW 241457
MTRP60
METAR KP60 241456Z AUTO 28008KT M09/M12 A3006 RMK AO1 SLP229 60001
T10891117 53024 $





000
SAUS45 KRIW 241357
MTRP60
METAR KP60 241356Z AUTO 27005KT M08/M11 A3003 RMK AO1 SLP214 P0001
T10831111 $





000
SAUS45 KRIW 241257
MTRP60
METAR KP60 241256Z AUTO 28003KT M08/M11 A2999 RMK AO1 SLP200
T10831111 $





000
SAUS45 KRIW 241157
MTRP60
METAR KP60 241156Z AUTO 28006KT M08/M11 A2997 RMK AO1 SLP192 60001
70008 T10831111 11067 21083 53012 $





000
SAUS45 KRIW 241057
MTRP60
METAR KP60 241056Z AUTO 28006KT M08/M11 A2994 RMK AO1 SLP176
T10831111 $





000
SAUS45 KRIW 240957
MTRP60
METAR KP60 240956Z AUTO 27006KT M08/M10 A2993 RMK AO1 SLP169
T10781100 $





000
SAUS45 KRIW 240857
MTRP60
METAR KP60 240856Z AUTO 28005KT M07/M11 A2993 RMK AO1 SLP169 60001
T10721106 53005 $





000
SAUS45 KRIW 240757
MTRP60
METAR KP60 240756Z AUTO VRB03KT M07/M10 A2991 RMK AO1 SLP162 P0001
T10721100 $





000
SAUS45 KRIW 240657
MTRP60
METAR KP60 240656Z AUTO 27009G15KT M07/M10 A2990 RMK AO1 SLP160
T10671100 410441122 $





000
SAUS45 KRIW 240557
MTRP60
METAR KP60 240556Z AUTO VRB06KT M07/M09 A2991 RMK AO1 SLP167 P0003
60004 T10671089 11061 21067 56012 $





000
SAUS45 KRIW 240457
MTRP60
METAR KP60 240456Z AUTO VRB04KT M07/M09 A2993 RMK AO1 SLP174
T10671094 $





000
SAUS45 KRIW 240357
MTRP60
METAR KP60 240356Z AUTO VRB05KT M07/M09 A2993 RMK AO1 SLP179
T10671094





000
SAUS45 KRIW 240257
MTRP60
METAR KP60 240256Z AUTO VRB06KT M07/M09 A2996 RMK AO1 SLP191 P0001
60001 T10671094 56009





000
SAUS45 KRIW 240157
MTRP60
METAR KP60 240156Z AUTO 27007G16KT M07/M11 A2996 RMK AO1 SLP191
T10671106





000
SAUS45 KRIW 240157
MTRP60
METAR KP60 240156Z AUTO 27007G16KT M07/M11 A2996 RMK AO1 SLP191
T10671106





    US Dept of Commerce
    National Oceanic and Atmospheric Administration
    National Weather Service
    1325 East West Highway
    Silver Spring, MD 20910
    Page Author: NWS Internet Services Team
Disclaimer
Information Quality
Credits
Glossary
Privacy Policy
Freedom of Information Act (FOIA)
About Us
Career Opportunities